sensor_id;sensor_type;location;lat;lon;timestamp;P1;durP1;ratioP1;P2;durP2;ratioP2
48853;SDS011;34673;52.808;17.856;2023-12-14T00:01:17;104.03;;;27.90;;
48853;SDS011;34673;52.808;17.856;2023-12-14T00:03:45;71.80;;;23.23;;
48853;SDS011;34673;52.808;17.856;2023-12-14T00:06:13;83.90;;;26.45;;
48853;SDS011;34673;52.808;17.856;2023-12-14T00:08:41;87.72;;;27.02;;
48853;SDS011;34673;52.808;17.856;2023-12-14T00:11:09;85.03;;;26.27;;
48853;SDS011;34673;52.808;17.856;2023-12-14T00:13:38;76.00;;;24.00;;
48853;SDS011;34673;52.808;17.856;2023-12-14T00:16:05;79.38;;;23.92;;
48853;SDS011;34673;52.808;17.856;2023-12-14T00:18:33;72.40;;;24.75;;
48853;SDS011;34673;52.808;17.856;2023-12-14T00:21:01;86.10;;;26.77;;
48853;SDS011;34673;52.808;17.856;2023-12-14T00:23:28;88.50;;;24.88;;
48853;SDS011;34673;52.808;17.856;2023-12-14T00:25:56;73.13;;;23.88;;
48853;SDS011;34673;52.808;17.856;2023-12-14T00:28:23;84.10;;;25.35;;
48853;SDS011;34673;52.808;17.856;2023-12-14T00:30:54;88.97;;;26.20;;
48853;SDS011;34673;52.808;17.856;2023-12-14T00:33:22;74.38;;;24.05;;
48853;SDS011;34673;52.808;17.856;2023-12-14T00:35:50;95.57;;;27.90;;
48853;SDS011;34673;52.808;17.856;2023-12-14T00:38:18;79.88;;;24.52;;
48853;SDS011;34673;52.808;17.856;2023-12-14T00:40:45;66.57;;;23.67;;
48853;SDS011;34673;52.808;17.856;2023-12-14T00:43:12;75.57;;;23.45;;
48853;SDS011;34673;52.808;17.856;2023-12-14T00:45:40;93.25;;;25.20;;
48853;SDS011;34673;52.808;17.856;2023-12-14T00:48:08;101.78;;;25.73;;
48853;SDS011;34673;52.808;17.856;2023-12-14T00:50:35;70.78;;;23.65;;
48853;SDS011;34673;52.808;17.856;2023-12-14T00:53:02;83.50;;;27.25;;
48853;SDS011;34673;52.808;17.856;2023-12-14T00:55:30;64.85;;;21.77;;
48853;SDS011;34673;52.808;17.856;2023-12-14T00:57:57;66.22;;;23.05;;
48853;SDS011;34673;52.808;17.856;2023-12-14T01:00:24;98.13;;;27.00;;
48853;SDS011;34673;52.808;17.856;2023-12-14T01:02:52;77.15;;;23.75;;
48853;SDS011;34673;52.808;17.856;2023-12-14T01:05:19;54.50;;;20.50;;
48853;SDS011;34673;52.808;17.856;2023-12-14T01:07:46;79.38;;;24.13;;
48853;SDS011;34673;52.808;17.856;2023-12-14T01:10:14;72.68;;;23.45;;
48853;SDS011;34673;52.808;17.856;2023-12-14T01:12:41;61.80;;;22.90;;
48853;SDS011;34673;52.808;17.856;2023-12-14T01:15:09;84.05;;;23.95;;
48853;SDS011;34673;52.808;17.856;2023-12-14T01:17:36;75.07;;;23.42;;
48853;SDS011;34673;52.808;17.856;2023-12-14T01:20:05;85.57;;;25.30;;
48853;SDS011;34673;52.808;17.856;2023-12-14T01:22:34;63.85;;;23.17;;
48853;SDS011;34673;52.808;17.856;2023-12-14T01:25:02;75.70;;;23.88;;
48853;SDS011;34673;52.808;17.856;2023-12-14T01:27:29;86.03;;;26.52;;
48853;SDS011;34673;52.808;17.856;2023-12-14T01:29:56;75.85;;;24.65;;
48853;SDS011;34673;52.808;17.856;2023-12-14T01:32:23;77.00;;;24.00;;
48853;SDS011;34673;52.808;17.856;2023-12-14T01:34:51;60.80;;;21.73;;
48853;SDS011;34673;52.808;17.856;2023-12-14T01:37:18;75.43;;;23.42;;
48853;SDS011;34673;52.808;17.856;2023-12-14T01:39:46;83.18;;;24.35;;
48853;SDS011;34673;52.808;17.856;2023-12-14T01:42:13;78.05;;;24.50;;
48853;SDS011;34673;52.808;17.856;2023-12-14T01:44:41;78.50;;;24.83;;
48853;SDS011;34673;52.808;17.856;2023-12-14T01:47:08;67.35;;;22.15;;
48853;SDS011;34673;52.808;17.856;2023-12-14T01:49:35;78.15;;;24.40;;
48853;SDS011;34673;52.808;17.856;2023-12-14T01:52:02;82.60;;;23.88;;
48853;SDS011;34673;52.808;17.856;2023-12-14T01:54:30;74.60;;;22.58;;
48853;SDS011;34673;52.808;17.856;2023-12-14T01:56:58;84.82;;;23.73;;
48853;SDS011;34673;52.808;17.856;2023-12-14T01:59:25;75.47;;;23.05;;
48853;SDS011;34673;52.808;17.856;2023-12-14T02:01:53;78.40;;;24.48;;
48853;SDS011;34673;52.808;17.856;2023-12-14T02:04:24;90.85;;;25.63;;
48853;SDS011;34673;52.808;17.856;2023-12-14T02:06:54;97.03;;;25.75;;
48853;SDS011;34673;52.808;17.856;2023-12-14T02:09:21;88.45;;;24.60;;
48853;SDS011;34673;52.808;17.856;2023-12-14T02:11:49;79.18;;;23.75;;
48853;SDS011;34673;52.808;17.856;2023-12-14T02:14:16;87.47;;;24.60;;
48853;SDS011;34673;52.808;17.856;2023-12-14T02:16:43;83.50;;;24.73;;
48853;SDS011;34673;52.808;17.856;2023-12-14T02:19:11;94.88;;;24.88;;
48853;SDS011;34673;52.808;17.856;2023-12-14T02:21:38;83.97;;;25.25;;
48853;SDS011;34673;52.808;17.856;2023-12-14T02:24:05;74.25;;;22.40;;
48853;SDS011;34673;52.808;17.856;2023-12-14T02:26:32;78.63;;;23.52;;
48853;SDS011;34673;52.808;17.856;2023-12-14T02:29:00;90.57;;;24.08;;
48853;SDS011;34673;52.808;17.856;2023-12-14T02:31:27;89.60;;;25.75;;
48853;SDS011;34673;52.808;17.856;2023-12-14T02:33:54;78.22;;;23.88;;
48853;SDS011;34673;52.808;17.856;2023-12-14T02:36:22;85.50;;;25.70;;
48853;SDS011;34673;52.808;17.856;2023-12-14T02:38:49;86.93;;;26.00;;
48853;SDS011;34673;52.808;17.856;2023-12-14T02:41:16;96.93;;;24.80;;
48853;SDS011;34673;52.808;17.856;2023-12-14T02:43:44;96.07;;;25.17;;
48853;SDS011;34673;52.808;17.856;2023-12-14T02:46:11;82.30;;;23.73;;
48853;SDS011;34673;52.808;17.856;2023-12-14T02:48:42;95.47;;;24.90;;
48853;SDS011;34673;52.808;17.856;2023-12-14T02:51:13;87.97;;;24.30;;
48853;SDS011;34673;52.808;17.856;2023-12-14T02:53:41;83.45;;;22.92;;
48853;SDS011;34673;52.808;17.856;2023-12-14T02:56:09;93.15;;;25.63;;
48853;SDS011;34673;52.808;17.856;2023-12-14T02:58:38;84.30;;;24.33;;
48853;SDS011;34673;52.808;17.856;2023-12-14T03:01:06;75.25;;;23.17;;
48853;SDS011;34673;52.808;17.856;2023-12-14T03:03:33;88.55;;;24.08;;
48853;SDS011;34673;52.808;17.856;2023-12-14T03:06:00;82.25;;;23.00;;
48853;SDS011;34673;52.808;17.856;2023-12-14T03:08:28;90.78;;;23.48;;
48853;SDS011;34673;52.808;17.856;2023-12-14T03:10:55;86.07;;;23.92;;
48853;SDS011;34673;52.808;17.856;2023-12-14T03:13:22;80.38;;;22.10;;
48853;SDS011;34673;52.808;17.856;2023-12-14T03:15:50;59.85;;;20.30;;
48853;SDS011;34673;52.808;17.856;2023-12-14T03:18:17;71.60;;;21.63;;
48853;SDS011;34673;52.808;17.856;2023-12-14T03:20:44;84.90;;;23.15;;
48853;SDS011;34673;52.808;17.856;2023-12-14T03:23:12;65.45;;;22.67;;
48853;SDS011;34673;52.808;17.856;2023-12-14T03:25:39;69.72;;;22.17;;
48853;SDS011;34673;52.808;17.856;2023-12-14T03:28:06;72.65;;;22.35;;
48853;SDS011;34673;52.808;17.856;2023-12-14T03:30:34;58.60;;;19.42;;
48853;SDS011;34673;52.808;17.856;2023-12-14T03:33:01;63.38;;;19.85;;
48853;SDS011;34673;52.808;17.856;2023-12-14T03:35:29;57.38;;;19.35;;
48853;SDS011;34673;52.808;17.856;2023-12-14T03:37:56;59.97;;;20.08;;
48853;SDS011;34673;52.808;17.856;2023-12-14T03:40:23;59.55;;;20.10;;
48853;SDS011;34673;52.808;17.856;2023-12-14T03:42:51;61.22;;;20.08;;
48853;SDS011;34673;52.808;17.856;2023-12-14T03:45:18;61.95;;;19.35;;
48853;SDS011;34673;52.808;17.856;2023-12-14T03:47:45;58.15;;;19.30;;
48853;SDS011;34673;52.808;17.856;2023-12-14T03:50:13;47.40;;;18.27;;
48853;SDS011;34673;52.808;17.856;2023-12-14T03:52:40;65.22;;;21.13;;
48853;SDS011;34673;52.808;17.856;2023-12-14T03:55:08;55.35;;;19.75;;
48853;SDS011;34673;52.808;17.856;2023-12-14T03:57:35;60.78;;;19.60;;
48853;SDS011;34673;52.808;17.856;2023-12-14T04:00:03;58.17;;;19.33;;
48853;SDS011;34673;52.808;17.856;2023-12-14T04:02:31;68.68;;;20.50;;
48853;SDS011;34673;52.808;17.856;2023-12-14T04:04:58;58.60;;;19.25;;
48853;SDS011;34673;52.808;17.856;2023-12-14T04:07:26;57.22;;;18.90;;
48853;SDS011;34673;52.808;17.856;2023-12-14T04:09:53;75.60;;;22.38;;
48853;SDS011;34673;52.808;17.856;2023-12-14T04:12:20;60.15;;;19.38;;
48853;SDS011;34673;52.808;17.856;2023-12-14T04:14:48;49.08;;;17.27;;
48853;SDS011;34673;52.808;17.856;2023-12-14T04:17:15;56.40;;;19.25;;
48853;SDS011;34673;52.808;17.856;2023-12-14T04:19:42;57.85;;;19.13;;
48853;SDS011;34673;52.808;17.856;2023-12-14T04:22:09;54.63;;;17.92;;
48853;SDS011;34673;52.808;17.856;2023-12-14T04:24:36;56.63;;;19.38;;
48853;SDS011;34673;52.808;17.856;2023-12-14T04:27:04;49.38;;;17.73;;
48853;SDS011;34673;52.808;17.856;2023-12-14T04:29:31;58.22;;;19.55;;
48853;SDS011;34673;52.808;17.856;2023-12-14T04:31:58;52.97;;;17.80;;
48853;SDS011;34673;52.808;17.856;2023-12-14T04:34:26;54.03;;;18.17;;
48853;SDS011;34673;52.808;17.856;2023-12-14T04:36:53;52.60;;;18.02;;
48853;SDS011;34673;52.808;17.856;2023-12-14T04:39:24;45.97;;;17.45;;
48853;SDS011;34673;52.808;17.856;2023-12-14T04:41:52;49.05;;;17.38;;
48853;SDS011;34673;52.808;17.856;2023-12-14T04:44:20;48.25;;;16.55;;
48853;SDS011;34673;52.808;17.856;2023-12-14T04:46:48;43.72;;;15.88;;
48853;SDS011;34673;52.808;17.856;2023-12-14T04:49:15;52.55;;;18.40;;
48853;SDS011;34673;52.808;17.856;2023-12-14T04:51:43;51.63;;;17.17;;
48853;SDS011;34673;52.808;17.856;2023-12-14T04:54:11;55.60;;;18.20;;
48853;SDS011;34673;52.808;17.856;2023-12-14T04:56:38;51.40;;;17.42;;
48853;SDS011;34673;52.808;17.856;2023-12-14T04:59:05;50.58;;;17.70;;
48853;SDS011;34673;52.808;17.856;2023-12-14T05:01:33;55.78;;;19.20;;
48853;SDS011;34673;52.808;17.856;2023-12-14T05:04:00;44.58;;;18.10;;
48853;SDS011;34673;52.808;17.856;2023-12-14T05:06:28;49.20;;;17.48;;
48853;SDS011;34673;52.808;17.856;2023-12-14T05:08:56;47.55;;;17.98;;
48853;SDS011;34673;52.808;17.856;2023-12-14T05:11:24;38.53;;;15.98;;
48853;SDS011;34673;52.808;17.856;2023-12-14T05:13:51;43.10;;;16.33;;
48853;SDS011;34673;52.808;17.856;2023-12-14T05:16:19;45.42;;;16.98;;
48853;SDS011;34673;52.808;17.856;2023-12-14T05:18:46;43.08;;;16.92;;
48853;SDS011;34673;52.808;17.856;2023-12-14T05:21:17;40.10;;;16.52;;
48853;SDS011;34673;52.808;17.856;2023-12-14T05:23:45;44.58;;;17.92;;
48853;SDS011;34673;52.808;17.856;2023-12-14T05:26:12;42.33;;;16.15;;
48853;SDS011;34673;52.808;17.856;2023-12-14T05:28:40;37.35;;;15.50;;
48853;SDS011;34673;52.808;17.856;2023-12-14T05:31:07;35.95;;;15.45;;
48853;SDS011;34673;52.808;17.856;2023-12-14T05:33:38;36.63;;;15.25;;
48853;SDS011;34673;52.808;17.856;2023-12-14T05:36:06;36.15;;;16.13;;
48853;SDS011;34673;52.808;17.856;2023-12-14T05:38:38;33.80;;;15.40;;
48853;SDS011;34673;52.808;17.856;2023-12-14T05:41:06;35.97;;;15.43;;
48853;SDS011;34673;52.808;17.856;2023-12-14T05:43:33;32.75;;;14.57;;
48853;SDS011;34673;52.808;17.856;2023-12-14T05:46:01;33.38;;;14.93;;
48853;SDS011;34673;52.808;17.856;2023-12-14T05:48:28;29.55;;;13.80;;
48853;SDS011;34673;52.808;17.856;2023-12-14T05:50:57;26.38;;;13.68;;
48853;SDS011;34673;52.808;17.856;2023-12-14T05:53:24;28.25;;;13.57;;
48853;SDS011;34673;52.808;17.856;2023-12-14T05:55:51;32.28;;;14.77;;
48853;SDS011;34673;52.808;17.856;2023-12-14T05:58:18;31.55;;;14.65;;
48853;SDS011;34673;52.808;17.856;2023-12-14T06:00:46;29.85;;;15.02;;
48853;SDS011;34673;52.808;17.856;2023-12-14T06:03:13;27.13;;;13.73;;
48853;SDS011;34673;52.808;17.856;2023-12-14T06:05:40;31.90;;;16.17;;
48853;SDS011;34673;52.808;17.856;2023-12-14T06:08:08;32.47;;;15.13;;
48853;SDS011;34673;52.808;17.856;2023-12-14T06:10:35;36.95;;;16.02;;
48853;SDS011;34673;52.808;17.856;2023-12-14T06:13:03;32.40;;;15.15;;
48853;SDS011;34673;52.808;17.856;2023-12-14T06:15:31;33.30;;;14.75;;
48853;SDS011;34673;52.808;17.856;2023-12-14T06:17:59;34.50;;;16.38;;
48853;SDS011;34673;52.808;17.856;2023-12-14T06:20:27;31.60;;;15.20;;
48853;SDS011;34673;52.808;17.856;2023-12-14T06:22:54;29.20;;;15.13;;
48853;SDS011;34673;52.808;17.856;2023-12-14T06:25:21;36.40;;;16.95;;
48853;SDS011;34673;52.808;17.856;2023-12-14T06:27:49;35.58;;;16.63;;
48853;SDS011;34673;52.808;17.856;2023-12-14T06:30:16;34.88;;;16.70;;
48853;SDS011;34673;52.808;17.856;2023-12-14T06:32:44;39.72;;;16.70;;
48853;SDS011;34673;52.808;17.856;2023-12-14T06:35:11;32.80;;;15.85;;
48853;SDS011;34673;52.808;17.856;2023-12-14T06:37:40;33.33;;;16.20;;
48853;SDS011;34673;52.808;17.856;2023-12-14T06:40:08;35.15;;;17.13;;
48853;SDS011;34673;52.808;17.856;2023-12-14T06:42:36;39.30;;;16.70;;
48853;SDS011;34673;52.808;17.856;2023-12-14T06:45:04;35.53;;;17.25;;
48853;SDS011;34673;52.808;17.856;2023-12-14T06:47:31;39.20;;;18.10;;
48853;SDS011;34673;52.808;17.856;2023-12-14T06:49:59;41.65;;;19.40;;
48853;SDS011;34673;52.808;17.856;2023-12-14T06:52:26;40.78;;;18.90;;
48853;SDS011;34673;52.808;17.856;2023-12-14T06:54:53;36.85;;;18.27;;
48853;SDS011;34673;52.808;17.856;2023-12-14T06:57:21;36.85;;;18.02;;
48853;SDS011;34673;52.808;17.856;2023-12-14T06:59:51;34.72;;;17.70;;
48853;SDS011;34673;52.808;17.856;2023-12-14T07:02:18;42.75;;;19.08;;
48853;SDS011;34673;52.808;17.856;2023-12-14T07:04:46;38.72;;;18.83;;
48853;SDS011;34673;52.808;17.856;2023-12-14T07:07:14;35.95;;;18.42;;
48853;SDS011;34673;52.808;17.856;2023-12-14T07:09:42;43.17;;;19.55;;
48853;SDS011;34673;52.808;17.856;2023-12-14T07:12:11;40.92;;;18.70;;
48853;SDS011;34673;52.808;17.856;2023-12-14T07:14:40;42.92;;;18.92;;
48853;SDS011;34673;52.808;17.856;2023-12-14T07:17:08;35.53;;;17.45;;
48853;SDS011;34673;52.808;17.856;2023-12-14T07:19:35;36.97;;;17.65;;
48853;SDS011;34673;52.808;17.856;2023-12-14T07:22:03;36.60;;;18.13;;
48853;SDS011;34673;52.808;17.856;2023-12-14T07:24:30;36.63;;;17.65;;
48853;SDS011;34673;52.808;17.856;2023-12-14T07:27:14;36.97;;;17.48;;
48853;SDS011;34673;52.808;17.856;2023-12-14T07:29:41;43.92;;;19.02;;
48853;SDS011;34673;52.808;17.856;2023-12-14T07:32:08;39.53;;;18.45;;
48853;SDS011;34673;52.808;17.856;2023-12-14T07:34:36;42.42;;;19.30;;
48853;SDS011;34673;52.808;17.856;2023-12-14T07:37:03;40.15;;;18.48;;
48853;SDS011;34673;52.808;17.856;2023-12-14T07:39:30;42.38;;;20.08;;
48853;SDS011;34673;52.808;17.856;2023-12-14T07:41:57;40.58;;;18.58;;
48853;SDS011;34673;52.808;17.856;2023-12-14T07:44:26;41.53;;;18.08;;
48853;SDS011;34673;52.808;17.856;2023-12-14T07:46:58;36.92;;;17.27;;
48853;SDS011;34673;52.808;17.856;2023-12-14T07:51:54;38.22;;;17.58;;
48853;SDS011;34673;52.808;17.856;2023-12-14T07:54:21;43.17;;;17.40;;
48853;SDS011;34673;52.808;17.856;2023-12-14T07:56:49;37.90;;;16.95;;
48853;SDS011;34673;52.808;17.856;2023-12-14T07:59:16;41.05;;;18.45;;
48853;SDS011;34673;52.808;17.856;2023-12-14T08:01:44;38.45;;;18.65;;
48853;SDS011;34673;52.808;17.856;2023-12-14T08:04:11;41.88;;;19.08;;
48853;SDS011;34673;52.808;17.856;2023-12-14T08:06:39;35.70;;;16.65;;
48853;SDS011;34673;52.808;17.856;2023-12-14T08:09:06;40.42;;;17.88;;
48853;SDS011;34673;52.808;17.856;2023-12-14T08:11:34;40.65;;;18.40;;
48853;SDS011;34673;52.808;17.856;2023-12-14T08:14:01;41.88;;;17.90;;
48853;SDS011;34673;52.808;17.856;2023-12-14T08:16:30;37.85;;;17.52;;
48853;SDS011;34673;52.808;17.856;2023-12-14T08:18:57;38.83;;;18.38;;
48853;SDS011;34673;52.808;17.856;2023-12-14T08:21:25;35.13;;;16.55;;
48853;SDS011;34673;52.808;17.856;2023-12-14T08:23:52;37.90;;;16.98;;
48853;SDS011;34673;52.808;17.856;2023-12-14T08:26:19;36.55;;;17.25;;
48853;SDS011;34673;52.808;17.856;2023-12-14T08:28:47;36.55;;;17.70;;
48853;SDS011;34673;52.808;17.856;2023-12-14T08:31:14;39.05;;;17.25;;
48853;SDS011;34673;52.808;17.856;2023-12-14T08:33:41;29.27;;;15.77;;
48853;SDS011;34673;52.808;17.856;2023-12-14T08:36:15;37.08;;;17.30;;
48853;SDS011;34673;52.808;17.856;2023-12-14T08:38:43;35.65;;;17.05;;
48853;SDS011;34673;52.808;17.856;2023-12-14T08:41:14;32.85;;;17.15;;
48853;SDS011;34673;52.808;17.856;2023-12-14T08:43:42;31.27;;;15.85;;
48853;SDS011;34673;52.808;17.856;2023-12-14T08:46:10;33.28;;;16.45;;
48853;SDS011;34673;52.808;17.856;2023-12-14T08:48:37;35.60;;;17.10;;
48853;SDS011;34673;52.808;17.856;2023-12-14T08:51:05;36.33;;;18.52;;
48853;SDS011;34673;52.808;17.856;2023-12-14T08:53:32;36.95;;;17.58;;
48853;SDS011;34673;52.808;17.856;2023-12-14T08:56:00;31.77;;;16.17;;
48853;SDS011;34673;52.808;17.856;2023-12-14T08:58:27;34.90;;;17.20;;
48853;SDS011;34673;52.808;17.856;2023-12-14T09:00:54;35.55;;;17.67;;
48853;SDS011;34673;52.808;17.856;2023-12-14T09:03:22;32.50;;;17.08;;
48853;SDS011;34673;52.808;17.856;2023-12-14T09:05:49;33.83;;;18.20;;
48853;SDS011;34673;52.808;17.856;2023-12-14T09:08:17;33.03;;;16.58;;
48853;SDS011;34673;52.808;17.856;2023-12-14T09:10:44;28.80;;;15.30;;
48853;SDS011;34673;52.808;17.856;2023-12-14T09:13:12;26.83;;;14.70;;
48853;SDS011;34673;52.808;17.856;2023-12-14T09:15:39;28.33;;;14.63;;
48853;SDS011;34673;52.808;17.856;2023-12-14T09:18:06;28.08;;;13.82;;
48853;SDS011;34673;52.808;17.856;2023-12-14T09:20:34;29.38;;;15.20;;
48853;SDS011;34673;52.808;17.856;2023-12-14T09:23:04;26.35;;;13.20;;
48853;SDS011;34673;52.808;17.856;2023-12-14T09:25:31;28.45;;;14.88;;
48853;SDS011;34673;52.808;17.856;2023-12-14T09:28:00;27.15;;;13.48;;
48853;SDS011;34673;52.808;17.856;2023-12-14T09:30:27;26.15;;;13.43;;
48853;SDS011;34673;52.808;17.856;2023-12-14T09:32:54;28.30;;;13.30;;
48853;SDS011;34673;52.808;17.856;2023-12-14T09:35:22;25.65;;;13.32;;
48853;SDS011;34673;52.808;17.856;2023-12-14T09:37:49;25.85;;;13.73;;
48853;SDS011;34673;52.808;17.856;2023-12-14T09:40:16;25.50;;;13.23;;
48853;SDS011;34673;52.808;17.856;2023-12-14T09:42:45;25.05;;;13.63;;
48853;SDS011;34673;52.808;17.856;2023-12-14T09:45:13;26.58;;;14.10;;
48853;SDS011;34673;52.808;17.856;2023-12-14T09:50:12;24.85;;;13.15;;
48853;SDS011;34673;52.808;17.856;2023-12-14T09:52:41;22.85;;;12.35;;
48853;SDS011;34673;52.808;17.856;2023-12-14T09:55:12;23.25;;;12.50;;
48853;SDS011;34673;52.808;17.856;2023-12-14T09:57:39;23.88;;;12.80;;
48853;SDS011;34673;52.808;17.856;2023-12-14T10:00:07;22.45;;;11.77;;
48853;SDS011;34673;52.808;17.856;2023-12-14T10:02:40;27.88;;;12.43;;
48853;SDS011;34673;52.808;17.856;2023-12-14T10:05:10;23.20;;;12.57;;
48853;SDS011;34673;52.808;17.856;2023-12-14T10:07:40;22.60;;;11.50;;
48853;SDS011;34673;52.808;17.856;2023-12-14T10:10:11;20.95;;;11.30;;
48853;SDS011;34673;52.808;17.856;2023-12-14T10:12:51;21.15;;;11.23;;
48853;SDS011;34673;52.808;17.856;2023-12-14T10:17:51;23.15;;;11.88;;
48853;SDS011;34673;52.808;17.856;2023-12-14T10:20:21;19.63;;;10.90;;
48853;SDS011;34673;52.808;17.856;2023-12-14T10:22:50;20.55;;;11.13;;
48853;SDS011;34673;52.808;17.856;2023-12-14T10:25:18;20.77;;;11.70;;
48853;SDS011;34673;52.808;17.856;2023-12-14T10:27:54;20.48;;;11.65;;
48853;SDS011;34673;52.808;17.856;2023-12-14T10:30:22;21.33;;;11.07;;
48853;SDS011;34673;52.808;17.856;2023-12-14T10:32:49;20.38;;;10.57;;
48853;SDS011;34673;52.808;17.856;2023-12-14T10:35:17;18.85;;;10.75;;
48853;SDS011;34673;52.808;17.856;2023-12-14T10:37:46;20.92;;;10.20;;
48853;SDS011;34673;52.808;17.856;2023-12-14T10:40:17;19.35;;;10.98;;
48853;SDS011;34673;52.808;17.856;2023-12-14T10:42:44;15.50;;;9.57;;
48853;SDS011;34673;52.808;17.856;2023-12-14T10:45:12;15.13;;;9.15;;
48853;SDS011;34673;52.808;17.856;2023-12-14T10:47:47;16.15;;;8.40;;
48853;SDS011;34673;52.808;17.856;2023-12-14T10:50:15;14.88;;;8.48;;
48853;SDS011;34673;52.808;17.856;2023-12-14T10:52:42;13.43;;;7.85;;
48853;SDS011;34673;52.808;17.856;2023-12-14T10:55:15;14.43;;;7.68;;
48853;SDS011;34673;52.808;17.856;2023-12-14T10:57:51;13.68;;;7.78;;
48853;SDS011;34673;52.808;17.856;2023-12-14T11:00:20;14.65;;;8.27;;
48853;SDS011;34673;52.808;17.856;2023-12-14T11:02:47;14.38;;;8.25;;
48853;SDS011;34673;52.808;17.856;2023-12-14T11:05:15;13.65;;;8.70;;
48853;SDS011;34673;52.808;17.856;2023-12-14T11:07:47;14.95;;;8.43;;
48853;SDS011;34673;52.808;17.856;2023-12-14T11:10:27;14.25;;;8.38;;
48853;SDS011;34673;52.808;17.856;2023-12-14T11:12:57;13.43;;;8.30;;
48853;SDS011;34673;52.808;17.856;2023-12-14T11:15:27;12.32;;;7.45;;
48853;SDS011;34673;52.808;17.856;2023-12-14T11:23:29;13.00;;;7.82;;
48853;SDS011;34673;52.808;17.856;2023-12-14T11:26:00;14.80;;;7.80;;
48853;SDS011;34673;52.808;17.856;2023-12-14T11:28:32;14.55;;;8.23;;
48853;SDS011;34673;52.808;17.856;2023-12-14T11:31:01;15.00;;;8.45;;
48853;SDS011;34673;52.808;17.856;2023-12-14T11:33:34;14.93;;;7.70;;
48853;SDS011;34673;52.808;17.856;2023-12-14T11:36:10;12.57;;;7.35;;
48853;SDS011;34673;52.808;17.856;2023-12-14T11:38:38;11.93;;;7.55;;
48853;SDS011;34673;52.808;17.856;2023-12-14T11:41:05;14.63;;;7.82;;
48853;SDS011;34673;52.808;17.856;2023-12-14T11:43:43;14.10;;;7.20;;
48853;SDS011;34673;52.808;17.856;2023-12-14T11:46:11;14.88;;;8.05;;
48853;SDS011;34673;52.808;17.856;2023-12-14T11:48:43;13.98;;;8.10;;
48853;SDS011;34673;52.808;17.856;2023-12-14T11:51:11;12.98;;;7.40;;
48853;SDS011;34673;52.808;17.856;2023-12-14T11:53:39;12.88;;;7.47;;
48853;SDS011;34673;52.808;17.856;2023-12-14T11:56:06;12.85;;;7.50;;
48853;SDS011;34673;52.808;17.856;2023-12-14T11:58:34;12.35;;;8.00;;
48853;SDS011;34673;52.808;17.856;2023-12-14T12:03:45;10.63;;;6.60;;
48853;SDS011;34673;52.808;17.856;2023-12-14T12:06:26;12.45;;;6.72;;
48853;SDS011;34673;52.808;17.856;2023-12-14T12:08:55;14.73;;;7.20;;
48853;SDS011;34673;52.808;17.856;2023-12-14T12:11:23;13.90;;;7.47;;
48853;SDS011;34673;52.808;17.856;2023-12-14T12:16:24;13.40;;;6.82;;
48853;SDS011;34673;52.808;17.856;2023-12-14T12:18:52;13.63;;;8.20;;
48853;SDS011;34673;52.808;17.856;2023-12-14T12:21:20;13.60;;;7.72;;
48853;SDS011;34673;52.808;17.856;2023-12-14T12:23:47;12.00;;;6.85;;
48853;SDS011;34673;52.808;17.856;2023-12-14T12:26:14;13.45;;;7.95;;
48853;SDS011;34673;52.808;17.856;2023-12-14T12:28:42;14.32;;;7.70;;
48853;SDS011;34673;52.808;17.856;2023-12-14T12:31:09;14.35;;;7.78;;
48853;SDS011;34673;52.808;17.856;2023-12-14T12:33:37;15.27;;;7.60;;
48853;SDS011;34673;52.808;17.856;2023-12-14T12:36:05;13.00;;;7.57;;
48853;SDS011;34673;52.808;17.856;2023-12-14T12:38:33;15.38;;;8.38;;
48853;SDS011;34673;52.808;17.856;2023-12-14T12:41:00;12.23;;;7.20;;
48853;SDS011;34673;52.808;17.856;2023-12-14T12:43:28;14.57;;;7.30;;
48853;SDS011;34673;52.808;17.856;2023-12-14T12:45:55;12.55;;;7.40;;
48853;SDS011;34673;52.808;17.856;2023-12-14T12:48:25;12.63;;;6.97;;
48853;SDS011;34673;52.808;17.856;2023-12-14T12:50:53;12.52;;;6.80;;
48853;SDS011;34673;52.808;17.856;2023-12-14T12:53:21;13.00;;;7.10;;
48853;SDS011;34673;52.808;17.856;2023-12-14T12:55:48;12.38;;;6.53;;
48853;SDS011;34673;52.808;17.856;2023-12-14T12:58:16;11.15;;;6.60;;
48853;SDS011;34673;52.808;17.856;2023-12-14T13:00:43;12.73;;;6.97;;
48853;SDS011;34673;52.808;17.856;2023-12-14T13:03:11;12.90;;;6.47;;
48853;SDS011;34673;52.808;17.856;2023-12-14T13:05:39;11.55;;;6.60;;
48853;SDS011;34673;52.808;17.856;2023-12-14T13:08:07;11.18;;;6.03;;
48853;SDS011;34673;52.808;17.856;2023-12-14T13:10:34;11.40;;;6.43;;
48853;SDS011;34673;52.808;17.856;2023-12-14T13:13:01;11.57;;;6.40;;
48853;SDS011;34673;52.808;17.856;2023-12-14T13:15:29;12.52;;;6.28;;
48853;SDS011;34673;52.808;17.856;2023-12-14T13:17:58;13.05;;;6.38;;
48853;SDS011;34673;52.808;17.856;2023-12-14T13:20:25;11.80;;;6.45;;
48853;SDS011;34673;52.808;17.856;2023-12-14T13:22:53;12.18;;;6.72;;
48853;SDS011;34673;52.808;17.856;2023-12-14T13:25:20;10.65;;;5.93;;
48853;SDS011;34673;52.808;17.856;2023-12-14T13:27:52;11.70;;;6.57;;
48853;SDS011;34673;52.808;17.856;2023-12-14T13:30:20;11.25;;;6.28;;
48853;SDS011;34673;52.808;17.856;2023-12-14T13:32:50;13.57;;;6.40;;
48853;SDS011;34673;52.808;17.856;2023-12-14T13:35:17;15.18;;;6.68;;
48853;SDS011;34673;52.808;17.856;2023-12-14T13:37:45;13.18;;;6.85;;
48853;SDS011;34673;52.808;17.856;2023-12-14T13:40:13;12.10;;;6.85;;
48853;SDS011;34673;52.808;17.856;2023-12-14T13:42:42;15.30;;;7.30;;
48853;SDS011;34673;52.808;17.856;2023-12-14T13:45:27;12.52;;;6.53;;
48853;SDS011;34673;52.808;17.856;2023-12-14T13:47:57;13.00;;;6.35;;
48853;SDS011;34673;52.808;17.856;2023-12-14T13:50:26;12.65;;;6.32;;
48853;SDS011;34673;52.808;17.856;2023-12-14T13:52:55;11.02;;;6.45;;
48853;SDS011;34673;52.808;17.856;2023-12-14T13:55:23;10.65;;;6.05;;
48853;SDS011;34673;52.808;17.856;2023-12-14T13:57:50;11.02;;;6.32;;
48853;SDS011;34673;52.808;17.856;2023-12-14T14:00:18;11.88;;;6.25;;
48853;SDS011;34673;52.808;17.856;2023-12-14T14:02:46;10.55;;;5.75;;
48853;SDS011;34673;52.808;17.856;2023-12-14T14:05:14;12.07;;;6.40;;
48853;SDS011;34673;52.808;17.856;2023-12-14T14:07:41;11.27;;;5.40;;
48853;SDS011;34673;52.808;17.856;2023-12-14T14:10:09;10.52;;;5.60;;
48853;SDS011;34673;52.808;17.856;2023-12-14T14:12:36;11.85;;;5.70;;
48853;SDS011;34673;52.808;17.856;2023-12-14T14:15:05;11.13;;;5.22;;
48853;SDS011;34673;52.808;17.856;2023-12-14T14:17:33;9.75;;;5.57;;
48853;SDS011;34673;52.808;17.856;2023-12-14T14:20:00;10.30;;;5.45;;
48853;SDS011;34673;52.808;17.856;2023-12-14T14:22:28;9.98;;;5.32;;
48853;SDS011;34673;52.808;17.856;2023-12-14T14:24:56;11.07;;;5.25;;
48853;SDS011;34673;52.808;17.856;2023-12-14T14:27:23;10.77;;;6.25;;
48853;SDS011;34673;52.808;17.856;2023-12-14T14:29:51;10.98;;;5.55;;
48853;SDS011;34673;52.808;17.856;2023-12-14T14:32:21;10.18;;;5.43;;
48853;SDS011;34673;52.808;17.856;2023-12-14T14:34:48;9.35;;;5.03;;